sensor_id;sensor_type;location;lat;lon;timestamp;pressure;altitude;pressure_sealevel;temperature;humidity
45040;BME280;30778;53.574;7.770;2022-10-17T00:01:57;101864.03;;;10.40;51.81
45040;BME280;30778;53.574;7.770;2022-10-17T00:04:23;101868.44;;;10.38;52.04
45040;BME280;30778;53.574;7.770;2022-10-17T00:06:48;101868.41;;;10.40;51.91
45040;BME280;30778;53.574;7.770;2022-10-17T00:09:13;101858.91;;;10.37;52.18
45040;BME280;30778;53.574;7.770;2022-10-17T00:11:39;101864.16;;;10.36;52.09
45040;BME280;30778;53.574;7.770;2022-10-17T00:14:05;101861.47;;;10.39;52.19
45040;BME280;30778;53.574;7.770;2022-10-17T00:16:32;101863.34;;;10.34;51.81
45040;BME280;30778;53.574;7.770;2022-10-17T00:18:59;101861.75;;;10.27;52.19
45040;BME280;30778;53.574;7.770;2022-10-17T00:21:25;101860.84;;;10.28;52.23
45040;BME280;30778;53.574;7.770;2022-10-17T00:23:50;101863.56;;;10.23;52.41
45040;BME280;30778;53.574;7.770;2022-10-17T00:26:16;101854.78;;;10.26;52.61
45040;BME280;30778;53.574;7.770;2022-10-17T00:28:45;101852.13;;;10.29;52.51
45040;BME280;30778;53.574;7.770;2022-10-17T00:31:11;101864.34;;;10.28;52.59
45040;BME280;30778;53.574;7.770;2022-10-17T00:33:36;101861.75;;;10.28;52.76
45040;BME280;30778;53.574;7.770;2022-10-17T00:36:04;101862.44;;;10.35;52.44
45040;BME280;30778;53.574;7.770;2022-10-17T00:38:30;101861.53;;;10.36;52.29
45040;BME280;30778;53.574;7.770;2022-10-17T00:40:55;101867.69;;;10.35;52.25
45040;BME280;30778;53.574;7.770;2022-10-17T00:43:21;101865.97;;;10.32;52.57
45040;BME280;30778;53.574;7.770;2022-10-17T00:45:46;101862.63;;;10.27;52.45
45040;BME280;30778;53.574;7.770;2022-10-17T00:48:12;101850.47;;;10.26;52.53
45040;BME280;30778;53.574;7.770;2022-10-17T00:50:43;101848.84;;;10.19;52.73
45040;BME280;30778;53.574;7.770;2022-10-17T00:53:10;101852.63;;;10.07;53.19
45040;BME280;30778;53.574;7.770;2022-10-17T00:55:48;101848.28;;;10.06;53.23
45040;BME280;30778;53.574;7.770;2022-10-17T00:58:14;101847.53;;;10.01;53.49
45040;BME280;30778;53.574;7.770;2022-10-17T01:00:41;101842.19;;;10.06;53.50
45040;BME280;30778;53.574;7.770;2022-10-17T01:03:07;101845.56;;;10.11;53.34
45040;BME280;30778;53.574;7.770;2022-10-17T01:05:34;101839.34;;;10.16;53.39
45040;BME280;30778;53.574;7.770;2022-10-17T01:08:00;101834.13;;;10.16;53.34
45040;BME280;30778;53.574;7.770;2022-10-17T01:10:30;101834.28;;;10.10;53.47
45040;BME280;30778;53.574;7.770;2022-10-17T01:13:12;101821.97;;;10.15;53.33
45040;BME280;30778;53.574;7.770;2022-10-17T01:15:58;101816.91;;;10.08;53.62
45040;BME280;30778;53.574;7.770;2022-10-17T01:18:41;101817.81;;;10.07;53.73
45040;BME280;30778;53.574;7.770;2022-10-17T01:32:39;101801.50;;;9.97;54.25
45040;BME280;30778;53.574;7.770;2022-10-17T01:35:26;101788.28;;;10.03;53.84
45040;BME280;30778;53.574;7.770;2022-10-17T01:38:06;101790.13;;;9.99;53.80
45040;BME280;30778;53.574;7.770;2022-10-17T01:40:48;101793.56;;;10.00;53.89
45040;BME280;30778;53.574;7.770;2022-10-17T01:46:07;101795.00;;;10.15;54.18
45040;BME280;30778;53.574;7.770;2022-10-17T01:48:37;101792.41;;;10.13;54.04
45040;BME280;30778;53.574;7.770;2022-10-17T01:51:12;101789.22;;;10.36;53.39
45040;BME280;30778;53.574;7.770;2022-10-17T01:54:20;101781.81;;;10.55;53.19
45040;BME280;30778;53.574;7.770;2022-10-17T01:56:51;101774.19;;;10.46;52.97
45040;BME280;30778;53.574;7.770;2022-10-17T01:59:21;101773.97;;;10.55;53.02
45040;BME280;30778;53.574;7.770;2022-10-17T02:01:51;101764.19;;;10.62;52.94
45040;BME280;30778;53.574;7.770;2022-10-17T02:04:17;101753.16;;;10.51;53.29
45040;BME280;30778;53.574;7.770;2022-10-17T02:06:43;101760.13;;;10.50;53.38
45040;BME280;30778;53.574;7.770;2022-10-17T02:11:49;101748.25;;;10.73;52.76
45040;BME280;30778;53.574;7.770;2022-10-17T02:14:29;101745.63;;;10.73;52.77
45040;BME280;30778;53.574;7.770;2022-10-17T02:17:03;101738.81;;;10.66;53.10
45040;BME280;30778;53.574;7.770;2022-10-17T02:20:01;101736.91;;;10.72;52.76
45040;BME280;30778;53.574;7.770;2022-10-17T02:22:36;101731.53;;;10.77;52.98
45040;BME280;30778;53.574;7.770;2022-10-17T02:28:00;101735.06;;;10.76;53.09
45040;BME280;30778;53.574;7.770;2022-10-17T02:30:34;101729.88;;;10.74;53.03
45040;BME280;30778;53.574;7.770;2022-10-17T02:33:16;101723.38;;;10.56;53.55
45040;BME280;30778;53.574;7.770;2022-10-17T02:35:46;101719.38;;;10.76;53.00
45040;BME280;30778;53.574;7.770;2022-10-17T02:38:15;101712.34;;;10.78;53.37
45040;BME280;30778;53.574;7.770;2022-10-17T02:40:43;101708.09;;;10.74;53.34
45040;BME280;30778;53.574;7.770;2022-10-17T02:43:10;101713.94;;;10.85;53.04
45040;BME280;30778;53.574;7.770;2022-10-17T02:45:36;101714.97;;;10.78;53.42
45040;BME280;30778;53.574;7.770;2022-10-17T02:48:38;101701.78;;;10.81;53.53
45040;BME280;30778;53.574;7.770;2022-10-17T02:56:47;101690.34;;;10.87;53.13
45040;BME280;30778;53.574;7.770;2022-10-17T02:59:16;101697.53;;;10.77;53.52
45040;BME280;30778;53.574;7.770;2022-10-17T03:01:45;101677.50;;;10.77;53.66
45040;BME280;30778;53.574;7.770;2022-10-17T03:04:12;101688.81;;;10.78;53.62
45040;BME280;30778;53.574;7.770;2022-10-17T03:06:40;101671.53;;;10.72;53.95
45040;BME280;30778;53.574;7.770;2022-10-17T03:09:06;101674.38;;;10.64;54.23
45040;BME280;30778;53.574;7.770;2022-10-17T03:11:33;101666.94;;;10.82;53.49
45040;BME280;30778;53.574;7.770;2022-10-17T03:13:59;101668.09;;;10.70;54.15
45040;BME280;30778;53.574;7.770;2022-10-17T03:16:25;101681.50;;;10.59;54.04
45040;BME280;30778;53.574;7.770;2022-10-17T03:18:51;101685.34;;;10.77;53.72
45040;BME280;30778;53.574;7.770;2022-10-17T03:21:16;101679.50;;;10.68;54.10
45040;BME280;30778;53.574;7.770;2022-10-17T03:23:42;101693.41;;;10.70;53.71
45040;BME280;30778;53.574;7.770;2022-10-17T03:26:11;101697.09;;;10.61;54.46
45040;BME280;30778;53.574;7.770;2022-10-17T03:28:37;101695.53;;;10.55;54.29
45040;BME280;30778;53.574;7.770;2022-10-17T03:31:08;101695.44;;;10.58;54.23
45040;BME280;30778;53.574;7.770;2022-10-17T03:33:35;101694.34;;;10.67;54.17
45040;BME280;30778;53.574;7.770;2022-10-17T03:36:08;101675.91;;;10.72;54.05
45040;BME280;30778;53.574;7.770;2022-10-17T03:38:35;101673.78;;;10.20;55.43
45040;BME280;30778;53.574;7.770;2022-10-17T03:41:01;101672.81;;;10.57;54.35
45040;BME280;30778;53.574;7.770;2022-10-17T03:43:28;101672.91;;;10.54;54.38
45040;BME280;30778;53.574;7.770;2022-10-17T03:45:53;101673.16;;;10.45;54.68
45040;BME280;30778;53.574;7.770;2022-10-17T03:48:19;101668.31;;;10.30;55.19
45040;BME280;30778;53.574;7.770;2022-10-17T03:50:44;101663.50;;;10.47;54.35
45040;BME280;30778;53.574;7.770;2022-10-17T03:53:10;101669.88;;;10.37;55.08
45040;BME280;30778;53.574;7.770;2022-10-17T03:55:36;101675.09;;;10.37;55.06
45040;BME280;30778;53.574;7.770;2022-10-17T03:58:01;101669.13;;;10.32;55.25
45040;BME280;30778;53.574;7.770;2022-10-17T04:00:28;101679.41;;;10.39;55.21
45040;BME280;30778;53.574;7.770;2022-10-17T04:02:57;101670.91;;;10.31;55.44
45040;BME280;30778;53.574;7.770;2022-10-17T04:05:24;101669.16;;;10.30;55.32
45040;BME280;30778;53.574;7.770;2022-10-17T04:07:49;101669.81;;;10.40;55.43
45040;BME280;30778;53.574;7.770;2022-10-17T04:10:18;101666.47;;;10.35;55.47
45040;BME280;30778;53.574;7.770;2022-10-17T04:12:44;101671.69;;;10.35;55.46
45040;BME280;30778;53.574;7.770;2022-10-17T04:15:10;101665.69;;;10.31;55.56
45040;BME280;30778;53.574;7.770;2022-10-17T04:17:36;101656.06;;;10.32;55.77
45040;BME280;30778;53.574;7.770;2022-10-17T04:20:02;101662.50;;;10.20;55.89
45040;BME280;30778;53.574;7.770;2022-10-17T04:22:28;101659.75;;;10.25;55.92
45040;BME280;30778;53.574;7.770;2022-10-17T04:24:53;101651.63;;;10.01;56.61
45040;BME280;30778;53.574;7.770;2022-10-17T04:27:34;101659.19;;;10.13;56.43
45040;BME280;30778;53.574;7.770;2022-10-17T04:29:59;101653.84;;;10.18;56.47
45040;BME280;30778;53.574;7.770;2022-10-17T04:32:25;101652.19;;;10.14;56.59
45040;BME280;30778;53.574;7.770;2022-10-17T04:35:01;101645.00;;;10.24;56.51
45040;BME280;30778;53.574;7.770;2022-10-17T04:37:28;101640.97;;;10.10;57.12
45040;BME280;30778;53.574;7.770;2022-10-17T04:39:54;101638.13;;;10.19;56.67
45040;BME280;30778;53.574;7.770;2022-10-17T04:42:19;101640.28;;;10.36;56.29
45040;BME280;30778;53.574;7.770;2022-10-17T04:44:45;101645.03;;;10.22;57.09
45040;BME280;30778;53.574;7.770;2022-10-17T04:47:13;101645.09;;;10.19;57.18
45040;BME280;30778;53.574;7.770;2022-10-17T04:49:40;101655.38;;;10.25;56.91
45040;BME280;30778;53.574;7.770;2022-10-17T04:52:08;101660.19;;;10.40;56.62
45040;BME280;30778;53.574;7.770;2022-10-17T04:54:44;101664.47;;;10.43;56.27
45040;BME280;30778;53.574;7.770;2022-10-17T04:57:12;101659.25;;;10.43;56.52
45040;BME280;30778;53.574;7.770;2022-10-17T04:59:39;101653.34;;;10.36;56.67
45040;BME280;30778;53.574;7.770;2022-10-17T05:02:30;101623.91;;;10.30;57.46
45040;BME280;30778;53.574;7.770;2022-10-17T05:04:56;101607.75;;;10.15;57.92
45040;BME280;30778;53.574;7.770;2022-10-17T05:07:22;101610.72;;;10.34;57.48
45040;BME280;30778;53.574;7.770;2022-10-17T05:10:00;101612.97;;;10.48;56.90
45040;BME280;30778;53.574;7.770;2022-10-17T05:12:27;101615.59;;;10.48;56.77
45040;BME280;30778;53.574;7.770;2022-10-17T05:14:53;101609.97;;;10.31;57.76
45040;BME280;30778;53.574;7.770;2022-10-17T05:17:19;101621.13;;;10.36;57.21
45040;BME280;30778;53.574;7.770;2022-10-17T05:19:45;101623.75;;;10.36;57.53
45040;BME280;30778;53.574;7.770;2022-10-17T05:22:10;101620.81;;;10.48;57.17
45040;BME280;30778;53.574;7.770;2022-10-17T05:24:36;101625.34;;;10.41;57.17
45040;BME280;30778;53.574;7.770;2022-10-17T05:27:02;101628.72;;;10.45;57.04
45040;BME280;30778;53.574;7.770;2022-10-17T05:29:28;101639.16;;;10.45;57.10
45040;BME280;30778;53.574;7.770;2022-10-17T05:32:02;101640.03;;;10.46;57.00
45040;BME280;30778;53.574;7.770;2022-10-17T05:34:27;101642.75;;;10.41;56.86
45040;BME280;30778;53.574;7.770;2022-10-17T05:36:53;101644.66;;;10.36;57.24
45040;BME280;30778;53.574;7.770;2022-10-17T05:39:20;101642.25;;;10.28;57.63
45040;BME280;30778;53.574;7.770;2022-10-17T05:41:48;101638.50;;;10.37;57.55
45040;BME280;30778;53.574;7.770;2022-10-17T05:44:15;101635.91;;;10.37;57.42
45040;BME280;30778;53.574;7.770;2022-10-17T05:46:47;101635.97;;;10.35;57.61
45040;BME280;30778;53.574;7.770;2022-10-17T05:49:13;101620.06;;;10.43;57.61
45040;BME280;30778;53.574;7.770;2022-10-17T05:51:39;101613.97;;;10.42;57.82
45040;BME280;30778;53.574;7.770;2022-10-17T05:54:05;101614.81;;;10.45;57.98
45040;BME280;30778;53.574;7.770;2022-10-17T05:56:32;101621.53;;;10.53;57.78
45040;BME280;30778;53.574;7.770;2022-10-17T05:58:58;101616.50;;;10.46;57.77
45040;BME280;30778;53.574;7.770;2022-10-17T06:01:37;101629.53;;;10.47;57.80
45040;BME280;30778;53.574;7.770;2022-10-17T06:04:02;101637.59;;;10.39;57.81
45040;BME280;30778;53.574;7.770;2022-10-17T06:06:28;101637.84;;;10.61;57.63
45040;BME280;30778;53.574;7.770;2022-10-17T06:08:54;101641.06;;;10.71;57.11
45040;BME280;30778;53.574;7.770;2022-10-17T06:11:24;101642.63;;;10.77;57.09
45040;BME280;30778;53.574;7.770;2022-10-17T06:13:50;101636.41;;;10.81;57.12
45040;BME280;30778;53.574;7.770;2022-10-17T06:16:21;101631.03;;;10.89;57.13
45040;BME280;30778;53.574;7.770;2022-10-17T06:18:46;101630.25;;;10.85;57.32
45040;BME280;30778;53.574;7.770;2022-10-17T06:21:14;101627.63;;;10.85;57.58
45040;BME280;30778;53.574;7.770;2022-10-17T06:23:44;101633.81;;;10.81;57.90
45040;BME280;30778;53.574;7.770;2022-10-17T06:26:16;101639.41;;;11.00;57.26
45040;BME280;30778;53.574;7.770;2022-10-17T06:28:41;101638.22;;;11.10;57.20
45040;BME280;30778;53.574;7.770;2022-10-17T06:31:09;101641.22;;;11.26;56.96
45040;BME280;30778;53.574;7.770;2022-10-17T06:33:35;101642.75;;;11.33;56.72
45040;BME280;30778;53.574;7.770;2022-10-17T06:36:03;101638.38;;;11.34;57.05
45040;BME280;30778;53.574;7.770;2022-10-17T06:38:30;101628.56;;;11.40;57.04
45040;BME280;30778;53.574;7.770;2022-10-17T06:41:05;101633.69;;;11.43;56.87
45040;BME280;30778;53.574;7.770;2022-10-17T06:43:34;101637.06;;;11.49;56.87
45040;BME280;30778;53.574;7.770;2022-10-17T06:46:18;101630.13;;;11.46;57.00
45040;BME280;30778;53.574;7.770;2022-10-17T06:48:54;101630.44;;;11.63;56.83
45040;BME280;30778;53.574;7.770;2022-10-17T06:51:38;101628.81;;;11.59;57.23
45040;BME280;30778;53.574;7.770;2022-10-17T06:54:07;101631.47;;;11.86;56.76
45040;BME280;30778;53.574;7.770;2022-10-17T06:56:47;101623.59;;;11.87;56.51
45040;BME280;30778;53.574;7.770;2022-10-17T06:59:38;101629.88;;;11.82;56.78
45040;BME280;30778;53.574;7.770;2022-10-17T07:02:09;101644.38;;;11.92;56.55
45040;BME280;30778;53.574;7.770;2022-10-17T07:04:36;101645.72;;;12.04;56.67
45040;BME280;30778;53.574;7.770;2022-10-17T07:07:01;101645.34;;;11.90;57.24
45040;BME280;30778;53.574;7.770;2022-10-17T07:09:30;101656.81;;;12.12;56.26
45040;BME280;30778;53.574;7.770;2022-10-17T07:11:58;101650.22;;;12.00;56.73
45040;BME280;30778;53.574;7.770;2022-10-17T07:14:24;101658.34;;;12.18;56.46
45040;BME280;30778;53.574;7.770;2022-10-17T07:16:59;101658.75;;;12.32;56.41
45040;BME280;30778;53.574;7.770;2022-10-17T07:19:27;101670.88;;;12.35;56.05
45040;BME280;30778;53.574;7.770;2022-10-17T07:21:53;101672.81;;;12.29;56.42
45040;BME280;30778;53.574;7.770;2022-10-17T07:24:19;101667.03;;;12.45;56.24
45040;BME280;30778;53.574;7.770;2022-10-17T07:26:48;101673.09;;;12.47;56.10
45040;BME280;30778;53.574;7.770;2022-10-17T07:29:14;101680.59;;;12.31;56.93
45040;BME280;30778;53.574;7.770;2022-10-17T07:31:51;101671.81;;;12.34;57.01
45040;BME280;30778;53.574;7.770;2022-10-17T07:34:17;101667.59;;;12.53;56.84
45040;BME280;30778;53.574;7.770;2022-10-17T07:36:43;101663.38;;;12.49;57.21
45040;BME280;30778;53.574;7.770;2022-10-17T07:39:11;101657.50;;;12.67;56.33
45040;BME280;30778;53.574;7.770;2022-10-17T07:41:37;101667.22;;;12.89;56.22
45040;BME280;30778;53.574;7.770;2022-10-17T07:44:03;101661.28;;;13.07;55.86
45040;BME280;30778;53.574;7.770;2022-10-17T07:46:33;101654.31;;;13.30;55.69
45040;BME280;30778;53.574;7.770;2022-10-17T07:48:58;101647.59;;;13.23;55.82
45040;BME280;30778;53.574;7.770;2022-10-17T07:51:24;101646.28;;;13.55;55.16
45040;BME280;30778;53.574;7.770;2022-10-17T07:53:50;101648.56;;;13.86;55.09
45040;BME280;30778;53.574;7.770;2022-10-17T07:56:15;101652.16;;;13.84;54.44
45040;BME280;30778;53.574;7.770;2022-10-17T07:58:41;101664.59;;;14.01;54.18
45040;BME280;30778;53.574;7.770;2022-10-17T08:01:09;101645.47;;;14.18;53.85
45040;BME280;30778;53.574;7.770;2022-10-17T08:03:39;101645.97;;;14.48;52.69
45040;BME280;30778;53.574;7.770;2022-10-17T08:06:04;101645.03;;;14.68;52.75
45040;BME280;30778;53.574;7.770;2022-10-17T08:08:30;101638.38;;;15.17;51.92
45040;BME280;30778;53.574;7.770;2022-10-17T08:11:01;101642.38;;;16.83;48.64
45040;BME280;30778;53.574;7.770;2022-10-17T08:13:27;101631.19;;;17.41;45.90
45040;BME280;30778;53.574;7.770;2022-10-17T08:15:52;101637.34;;;17.58;46.01
45040;BME280;30778;53.574;7.770;2022-10-17T08:18:17;101632.16;;;16.59;47.17
45040;BME280;30778;53.574;7.770;2022-10-17T08:20:43;101633.69;;;16.48;47.45
45040;BME280;30778;53.574;7.770;2022-10-17T08:23:09;101632.81;;;16.14;48.12
45040;BME280;30778;53.574;7.770;2022-10-17T08:25:37;101635.63;;;16.11;48.99
45040;BME280;30778;53.574;7.770;2022-10-17T08:28:03;101646.66;;;15.83;49.62
45040;BME280;30778;53.574;7.770;2022-10-17T08:30:28;101650.53;;;15.39;50.59
45040;BME280;30778;53.574;7.770;2022-10-17T08:32:55;101659.91;;;15.81;50.14
45040;BME280;30778;53.574;7.770;2022-10-17T08:35:20;101650.28;;;15.63;50.79
45040;BME280;30778;53.574;7.770;2022-10-17T08:37:46;101655.28;;;15.69;50.50
45040;BME280;30778;53.574;7.770;2022-10-17T08:40:24;101661.66;;;15.99;49.48
45040;BME280;30778;53.574;7.770;2022-10-17T08:43:19;101661.56;;;16.36;50.74
45040;BME280;30778;53.574;7.770;2022-10-17T08:45:52;101657.13;;;16.87;47.79
45040;BME280;30778;53.574;7.770;2022-10-17T08:48:24;101666.59;;;17.23;47.66
45040;BME280;30778;53.574;7.770;2022-10-17T08:51:12;101656.88;;;17.85;46.84
45040;BME280;30778;53.574;7.770;2022-10-17T08:53:45;101652.50;;;17.70;45.66
45040;BME280;30778;53.574;7.770;2022-10-17T08:56:23;101658.22;;;17.62;46.53
45040;BME280;30778;53.574;7.770;2022-10-17T08:58:50;101659.50;;;17.39;46.83
45040;BME280;30778;53.574;7.770;2022-10-17T09:01:35;101661.38;;;17.21;47.22
45040;BME280;30778;53.574;7.770;2022-10-17T09:12:19;101676.47;;;16.70;49.40
45040;BME280;30778;53.574;7.770;2022-10-17T09:17:43;101669.38;;;16.37;50.88
45040;BME280;30778;53.574;7.770;2022-10-17T09:25:22;101664.81;;;16.41;49.99
45040;BME280;30778;53.574;7.770;2022-10-17T09:30:46;101700.84;;;16.25;51.08
45040;BME280;30778;53.574;7.770;2022-10-17T09:33:22;101704.25;;;15.73;52.18
45040;BME280;30778;53.574;7.770;2022-10-17T09:35:49;101711.47;;;16.23;50.78
45040;BME280;30778;53.574;7.770;2022-10-17T09:38:20;101723.94;;;16.37;50.52
45040;BME280;30778;53.574;7.770;2022-10-17T09:40:50;101718.66;;;16.19;51.03
45040;BME280;30778;53.574;7.770;2022-10-17T09:43:18;101709.34;;;16.12;51.25
45040;BME280;30778;53.574;7.770;2022-10-17T09:46:39;101694.84;;;16.38;51.03
45040;BME280;30778;53.574;7.770;2022-10-17T09:48:50;101685.19;;;16.55;50.47
45040;BME280;30778;53.574;7.770;2022-10-17T09:51:17;101714.72;;;16.11;51.27
45040;BME280;30778;53.574;7.770;2022-10-17T09:53:47;101715.19;;;16.36;51.03
45040;BME280;30778;53.574;7.770;2022-10-17T09:56:16;101722.53;;;16.12;51.50
45040;BME280;30778;53.574;7.770;2022-10-17T09:58:46;101739.94;;;15.80;52.71
45040;BME280;30778;53.574;7.770;2022-10-17T10:01:20;101739.38;;;15.73;53.07
45040;BME280;30778;53.574;7.770;2022-10-17T10:03:46;101717.69;;;15.86;52.80
45040;BME280;30778;53.574;7.770;2022-10-17T10:06:16;101735.53;;;15.98;52.41
45040;BME280;30778;53.574;7.770;2022-10-17T10:08:49;101772.19;;;15.85;52.99
45040;BME280;30778;53.574;7.770;2022-10-17T10:11:15;101814.69;;;15.00;55.45
45040;BME280;30778;53.574;7.770;2022-10-17T10:13:42;101820.75;;;15.23;55.04
45040;BME280;30778;53.574;7.770;2022-10-17T10:18:43;101836.00;;;15.14;55.43
45040;BME280;30778;53.574;7.770;2022-10-17T10:21:16;101833.88;;;14.61;57.42
45040;BME280;30778;53.574;7.770;2022-10-17T10:23:44;101849.03;;;15.17;55.42
45040;BME280;30778;53.574;7.770;2022-10-17T10:28:35;101844.25;;;15.27;55.08
45040;BME280;30778;53.574;7.770;2022-10-17T10:31:04;101852.34;;;15.23;55.68
45040;BME280;30778;53.574;7.770;2022-10-17T10:33:32;101834.31;;;15.72;54.14
45040;BME280;30778;53.574;7.770;2022-10-17T10:36:02;101838.25;;;14.83;56.74
45040;BME280;30778;53.574;7.770;2022-10-17T10:38:30;101819.91;;;15.22;56.20
45040;BME280;30778;53.574;7.770;2022-10-17T10:41:04;101815.91;;;15.12;56.32
45040;BME280;30778;53.574;7.770;2022-10-17T10:43:37;101808.94;;;15.50;55.70
45040;BME280;30778;53.574;7.770;2022-10-17T10:46:15;101795.28;;;15.61;55.23
45040;BME280;30778;53.574;7.770;2022-10-17T10:48:50;101786.59;;;15.40;55.90
45040;BME280;30778;53.574;7.770;2022-10-17T10:51:18;101793.13;;;15.50;55.31
45040;BME280;30778;53.574;7.770;2022-10-17T10:53:54;101818.53;;;15.53;55.94
45040;BME280;30778;53.574;7.770;2022-10-17T10:56:27;101827.97;;;15.17;56.63
45040;BME280;30778;53.574;7.770;2022-10-17T11:04:39;101817.38;;;14.98;57.34
45040;BME280;30778;53.574;7.770;2022-10-17T11:10:20;101846.13;;;15.44;56.01
45040;BME280;30778;53.574;7.770;2022-10-17T11:12:55;101858.94;;;15.33;56.76
45040;BME280;30778;53.574;7.770;2022-10-17T11:15:26;101856.34;;;15.31;56.80
45040;BME280;30778;53.574;7.770;2022-10-17T11:18:25;101852.09;;;15.29;57.17
45040;BME280;30778;53.574;7.770;2022-10-17T11:20:55;101856.94;;;14.76;58.59
45040;BME280;30778;53.574;7.770;2022-10-17T11:23:42;101871.31;;;14.68;59.29
45040;BME280;30778;53.574;7.770;2022-10-17T11:29:29;101881.97;;;15.28;57.67
45040;BME280;30778;53.574;7.770;2022-10-17T11:32:04;101872.75;;;15.17;57.78
45040;BME280;30778;53.574;7.770;2022-10-17T11:34:37;101864.69;;;15.41;57.23
45040;BME280;30778;53.574;7.770;2022-10-17T11:37:13;101862.56;;;15.49;56.86
45040;BME280;30778;53.574;7.770;2022-10-17T11:42:19;101872.59;;;15.41;57.25
45040;BME280;30778;53.574;7.770;2022-10-17T11:44:47;101864.78;;;15.40;57.23
45040;BME280;30778;53.574;7.770;2022-10-17T11:49:50;101827.97;;;15.38;57.18
45040;BME280;30778;53.574;7.770;2022-10-17T11:55:00;101824.81;;;15.30;57.57
45040;BME280;30778;53.574;7.770;2022-10-17T12:00:26;101823.22;;;15.05;58.55
45040;BME280;30778;53.574;7.770;2022-10-17T12:11:23;101819.69;;;15.06;59.18
45040;BME280;30778;53.574;7.770;2022-10-17T12:13:53;101824.97;;;15.06;58.84
45040;BME280;30778;53.574;7.770;2022-10-17T12:18:49;101836.41;;;14.85;60.10
45040;BME280;30778;53.574;7.770;2022-10-17T12:21:16;101860.41;;;15.18;59.47
45040;BME280;30778;53.574;7.770;2022-10-17T12:23:50;101867.59;;;15.14;59.68
45040;BME280;30778;53.574;7.770;2022-10-17T12:26:25;101868.75;;;15.29;59.20
45040;BME280;30778;53.574;7.770;2022-10-17T12:28:51;101873.75;;;15.35;58.81
45040;BME280;30778;53.574;7.770;2022-10-17T12:33:54;101879.31;;;14.87;59.79
45040;BME280;30778;53.574;7.770;2022-10-17T12:46:50;101893.13;;;15.12;60.25
45040;BME280;30778;53.574;7.770;2022-10-17T12:57:41;101903.94;;;14.86;61.13
45040;BME280;30778;53.574;7.770;2022-10-17T13:03:03;101911.63;;;14.48;62.34
45040;BME280;30778;53.574;7.770;2022-10-17T13:05:33;101899.41;;;14.67;61.40
45040;BME280;30778;53.574;7.770;2022-10-17T13:08:01;101915.44;;;14.61;61.62
45040;BME280;30778;53.574;7.770;2022-10-17T13:10:28;101912.50;;;14.91;61.16
45040;BME280;30778;53.574;7.770;2022-10-17T13:13:18;101908.53;;;14.59;61.76
45040;BME280;30778;53.574;7.770;2022-10-17T13:15:49;101913.34;;;14.91;60.63
45040;BME280;30778;53.574;7.770;2022-10-17T13:18:23;101916.25;;;14.63;61.63
45040;BME280;30778;53.574;7.770;2022-10-17T13:21:00;101921.22;;;14.25;62.38
45040;BME280;30778;53.574;7.770;2022-10-17T13:23:30;101918.13;;;13.92;63.68
45040;BME280;30778;53.574;7.770;2022-10-17T13:26:13;101918.75;;;13.99;62.96
45040;BME280;30778;53.574;7.770;2022-10-17T13:28:41;101917.00;;;14.45;61.91
45040;BME280;30778;53.574;7.770;2022-10-17T13:31:29;101915.91;;;14.72;61.38
45040;BME280;30778;53.574;7.770;2022-10-17T13:33:58;101912.09;;;15.21;61.00
45040;BME280;30778;53.574;7.770;2022-10-17T13:36:24;101921.47;;;15.48;60.55
45040;BME280;30778;53.574;7.770;2022-10-17T13:38:50;101928.56;;;15.67;59.50
45040;BME280;30778;53.574;7.770;2022-10-17T13:41:19;101926.22;;;15.40;59.70
45040;BME280;30778;53.574;7.770;2022-10-17T13:43:48;101928.75;;;15.01;60.65
45040;BME280;30778;53.574;7.770;2022-10-17T13:46:22;101922.47;;;15.25;60.26
45040;BME280;30778;53.574;7.770;2022-10-17T13:48:49;101925.84;;;15.07;61.03
45040;BME280;30778;53.574;7.770;2022-10-17T13:51:15;101933.75;;;14.42;61.77
45040;BME280;30778;53.574;7.770;2022-10-17T13:53:40;101945.59;;;14.96;61.19
45040;BME280;30778;53.574;7.770;2022-10-17T13:58:47;101941.47;;;15.52;59.04
45040;BME280;30778;53.574;7.770;2022-10-17T14:01:14;101939.22;;;15.02;60.14
45040;BME280;30778;53.574;7.770;2022-10-17T14:03:41;101947.72;;;15.09;60.28
45040;BME280;30778;53.574;7.770;2022-10-17T14:06:19;101956.06;;;15.18;59.73
45040;BME280;30778;53.574;7.770;2022-10-17T14:08:56;101960.44;;;15.20;59.39
45040;BME280;30778;53.574;7.770;2022-10-17T14:11:35;101964.53;;;15.27;59.42
45040;BME280;30778;53.574;7.770;2022-10-17T14:14:02;101963.56;;;15.07;59.82
45040;BME280;30778;53.574;7.770;2022-10-17T14:16:35;101963.28;;;15.35;58.94
45040;BME280;30778;53.574;7.770;2022-10-17T14:19:01;101971.69;;;14.81;60.41
45040;BME280;30778;53.574;7.770;2022-10-17T14:21:27;101972.13;;;15.12;59.28
45040;BME280;30778;53.574;7.770;2022-10-17T14:26:49;101980.13;;;14.67;60.93
45040;BME280;30778;53.574;7.770;2022-10-17T14:29:50;101982.59;;;14.71;60.57
45040;BME280;30778;53.574;7.770;2022-10-17T14:32:16;101990.47;;;14.93;59.94
45040;BME280;30778;53.574;7.770;2022-10-17T14:34:42;101995.00;;;14.90;59.83
45040;BME280;30778;53.574;7.770;2022-10-17T14:37:11;101994.97;;;14.22;61.75
45040;BME280;30778;53.574;7.770;2022-10-17T14:39:36;101998.84;;;14.35;60.97
45040;BME280;30778;53.574;7.770;2022-10-17T14:42:03;102009.03;;;14.68;60.03
45040;BME280;30778;53.574;7.770;2022-10-17T14:44:33;102000.00;;;14.28;60.95
45040;BME280;30778;53.574;7.770;2022-10-17T14:47:01;102001.78;;;13.54;63.26
45040;BME280;30778;53.574;7.770;2022-10-17T14:49:39;102019.66;;;14.65;60.24
45040;BME280;30778;53.574;7.770;2022-10-17T14:54:39;102012.69;;;14.86;59.48
45040;BME280;30778;53.574;7.770;2022-10-17T14:57:14;102019.28;;;14.74;59.68
45040;BME280;30778;53.574;7.770;2022-10-17T14:59:41;102022.75;;;14.29;61.13
45040;BME280;30778;53.574;7.770;2022-10-17T15:02:08;102022.09;;;14.48;60.39